sensor_id;sensor_type;location;lat;lon;timestamp;P1;durP1;ratioP1;P2;durP2;ratioP2
71296;SDS011;59082;50.658;4.608;2023-02-19T07:06:54;10.93;;;2.23;;
71296;SDS011;59082;50.658;4.608;2023-02-19T07:09:20;7.45;;;2.70;;
71296;SDS011;59082;50.658;4.608;2023-02-19T07:11:47;8.17;;;2.30;;
71296;SDS011;59082;50.658;4.608;2023-02-19T07:14:14;12.23;;;2.28;;
71296;SDS011;59082;50.658;4.608;2023-02-19T07:16:45;6.80;;;2.72;;
71296;SDS011;59082;50.658;4.608;2023-02-19T07:19:11;9.88;;;3.28;;
71296;SDS011;59082;50.658;4.608;2023-02-19T07:21:40;8.73;;;2.33;;
71296;SDS011;59082;50.658;4.608;2023-02-19T07:24:07;5.87;;;2.20;;
71296;SDS011;59082;50.658;4.608;2023-02-19T07:26:34;7.88;;;2.28;;
71296;SDS011;59082;50.658;4.608;2023-02-19T07:29:00;5.55;;;1.88;;
71296;SDS011;59082;50.658;4.608;2023-02-19T07:31:26;8.18;;;2.20;;
71296;SDS011;59082;50.658;4.608;2023-02-19T07:33:58;11.40;;;2.20;;
71296;SDS011;59082;50.658;4.608;2023-02-19T07:36:23;10.50;;;2.60;;
71296;SDS011;59082;50.658;4.608;2023-02-19T07:38:56;7.17;;;1.63;;
71296;SDS011;59082;50.658;4.608;2023-02-19T07:41:23;10.77;;;2.22;;
71296;SDS011;59082;50.658;4.608;2023-02-19T07:43:49;13.35;;;2.72;;
71296;SDS011;59082;50.658;4.608;2023-02-19T07:46:14;7.38;;;2.40;;
71296;SDS011;59082;50.658;4.608;2023-02-19T07:48:41;6.40;;;2.03;;
71296;SDS011;59082;50.658;4.608;2023-02-19T07:51:10;10.07;;;2.50;;
71296;SDS011;59082;50.658;4.608;2023-02-19T07:53:38;8.35;;;2.22;;
71296;SDS011;59082;50.658;4.608;2023-02-19T07:56:04;11.53;;;2.60;;
71296;SDS011;59082;50.658;4.608;2023-02-19T07:58:31;11.75;;;2.55;;
71296;SDS011;59082;50.658;4.608;2023-02-19T08:01:14;7.95;;;2.33;;
71296;SDS011;59082;50.658;4.608;2023-02-19T08:03:42;7.53;;;2.08;;
71296;SDS011;59082;50.658;4.608;2023-02-19T08:06:09;12.23;;;2.80;;
71296;SDS011;59082;50.658;4.608;2023-02-19T08:08:36;6.80;;;2.38;;
71296;SDS011;59082;50.658;4.608;2023-02-19T08:11:04;6.65;;;1.95;;
71296;SDS011;59082;50.658;4.608;2023-02-19T08:13:49;9.20;;;2.22;;
71296;SDS011;59082;50.658;4.608;2023-02-19T08:16:16;6.13;;;2.33;;
71296;SDS011;59082;50.658;4.608;2023-02-19T08:18:44;7.60;;;2.80;;
71296;SDS011;59082;50.658;4.608;2023-02-19T08:21:11;6.28;;;2.42;;
71296;SDS011;59082;50.658;4.608;2023-02-19T08:23:37;9.63;;;2.33;;
71296;SDS011;59082;50.658;4.608;2023-02-19T08:26:03;9.68;;;2.10;;
71296;SDS011;59082;50.658;4.608;2023-02-19T08:28:29;9.50;;;2.80;;
71296;SDS011;59082;50.658;4.608;2023-02-19T08:31:00;7.57;;;2.80;;
71296;SDS011;59082;50.658;4.608;2023-02-19T08:33:27;9.07;;;2.75;;
71296;SDS011;59082;50.658;4.608;2023-02-19T08:35:53;8.35;;;2.33;;
71296;SDS011;59082;50.658;4.608;2023-02-19T08:38:19;5.30;;;1.98;;
71296;SDS011;59082;50.658;4.608;2023-02-19T08:40:44;7.07;;;2.07;;
71296;SDS011;59082;50.658;4.608;2023-02-19T08:43:11;9.43;;;4.20;;
71296;SDS011;59082;50.658;4.608;2023-02-19T08:45:37;25.20;;;6.22;;
71296;SDS011;59082;50.658;4.608;2023-02-19T08:48:04;18.27;;;5.28;;
71296;SDS011;59082;50.658;4.608;2023-02-19T08:50:30;19.50;;;6.85;;
71296;SDS011;59082;50.658;4.608;2023-02-19T08:52:57;11.27;;;4.00;;
71296;SDS011;59082;50.658;4.608;2023-02-19T08:55:24;14.10;;;4.93;;
71296;SDS011;59082;50.658;4.608;2023-02-19T08:57:50;14.07;;;4.50;;
71296;SDS011;59082;50.658;4.608;2023-02-19T09:00:16;15.70;;;4.30;;
71296;SDS011;59082;50.658;4.608;2023-02-19T09:02:42;12.95;;;3.20;;
71296;SDS011;59082;50.658;4.608;2023-02-19T09:05:07;9.57;;;2.33;;
71296;SDS011;59082;50.658;4.608;2023-02-19T09:07:34;16.95;;;3.97;;
71296;SDS011;59082;50.658;4.608;2023-02-19T09:10:01;6.33;;;2.90;;
71296;SDS011;59082;50.658;4.608;2023-02-19T09:12:27;10.77;;;3.00;;
71296;SDS011;59082;50.658;4.608;2023-02-19T09:14:52;7.32;;;2.70;;
71296;SDS011;59082;50.658;4.608;2023-02-19T09:17:21;10.77;;;3.03;;
71296;SDS011;59082;50.658;4.608;2023-02-19T09:19:52;15.88;;;3.38;;
71296;SDS011;59082;50.658;4.608;2023-02-19T09:22:18;14.60;;;3.38;;
71296;SDS011;59082;50.658;4.608;2023-02-19T09:24:44;11.15;;;3.00;;
71296;SDS011;59082;50.658;4.608;2023-02-19T09:27:13;11.33;;;3.70;;
71296;SDS011;59082;50.658;4.608;2023-02-19T09:29:43;9.07;;;3.38;;
71296;SDS011;59082;50.658;4.608;2023-02-19T09:32:09;11.82;;;4.30;;
71296;SDS011;59082;50.658;4.608;2023-02-19T09:34:34;6.60;;;2.23;;
71296;SDS011;59082;50.658;4.608;2023-02-19T09:37:00;14.50;;;5.73;;
71296;SDS011;59082;50.658;4.608;2023-02-19T09:39:25;9.15;;;3.75;;
71296;SDS011;59082;50.658;4.608;2023-02-19T09:44:24;13.63;;;3.95;;
71296;SDS011;59082;50.658;4.608;2023-02-19T09:46:53;9.25;;;3.60;;
71296;SDS011;59082;50.658;4.608;2023-02-19T09:54:30;13.25;;;6.10;;
71296;SDS011;59082;50.658;4.608;2023-02-19T09:56:59;10.88;;;4.15;;
71296;SDS011;59082;50.658;4.608;2023-02-19T09:59:28;11.80;;;4.60;;
71296;SDS011;59082;50.658;4.608;2023-02-19T10:02:04;6.53;;;3.92;;
71296;SDS011;59082;50.658;4.608;2023-02-19T10:04:45;10.27;;;3.80;;
71296;SDS011;59082;50.658;4.608;2023-02-19T10:07:19;9.75;;;4.22;;
71296;SDS011;59082;50.658;4.608;2023-02-19T10:09:50;20.10;;;7.10;;
71296;SDS011;59082;50.658;4.608;2023-02-19T10:12:27;11.85;;;4.55;;
71296;SDS011;59082;50.658;4.608;2023-02-19T10:14:56;7.68;;;4.03;;
71296;SDS011;59082;50.658;4.608;2023-02-19T10:17:29;7.73;;;4.03;;
71296;SDS011;59082;50.658;4.608;2023-02-19T10:19:56;12.57;;;5.13;;
71296;SDS011;59082;50.658;4.608;2023-02-19T10:22:22;16.45;;;6.70;;
71296;SDS011;59082;50.658;4.608;2023-02-19T10:24:51;11.30;;;4.70;;
71296;SDS011;59082;50.658;4.608;2023-02-19T10:27:19;11.43;;;3.30;;
71296;SDS011;59082;50.658;4.608;2023-02-19T10:29:46;11.13;;;3.80;;
71296;SDS011;59082;50.658;4.608;2023-02-19T10:32:18;7.43;;;3.22;;
71296;SDS011;59082;50.658;4.608;2023-02-19T10:35:05;10.48;;;3.92;;
71296;SDS011;59082;50.658;4.608;2023-02-19T10:37:34;6.20;;;3.80;;
71296;SDS011;59082;50.658;4.608;2023-02-19T10:40:11;11.07;;;4.05;;
71296;SDS011;59082;50.658;4.608;2023-02-19T10:42:43;6.25;;;3.83;;
71296;SDS011;59082;50.658;4.608;2023-02-19T10:45:15;8.38;;;4.82;;
71296;SDS011;59082;50.658;4.608;2023-02-19T10:47:44;9.18;;;4.13;;
71296;SDS011;59082;50.658;4.608;2023-02-19T10:50:28;5.37;;;3.83;;
71296;SDS011;59082;50.658;4.608;2023-02-19T10:52:56;4.88;;;3.03;;
71296;SDS011;59082;50.658;4.608;2023-02-19T10:55:28;7.13;;;3.47;;
71296;SDS011;59082;50.658;4.608;2023-02-19T10:58:15;8.40;;;4.25;;
71296;SDS011;59082;50.658;4.608;2023-02-19T11:01:11;7.60;;;3.78;;
71296;SDS011;59082;50.658;4.608;2023-02-19T11:03:43;7.70;;;3.77;;
71296;SDS011;59082;50.658;4.608;2023-02-19T11:06:10;9.80;;;4.63;;
71296;SDS011;59082;50.658;4.608;2023-02-19T11:08:45;7.40;;;3.97;;
71296;SDS011;59082;50.658;4.608;2023-02-19T11:11:35;8.23;;;4.18;;
71296;SDS011;59082;50.658;4.608;2023-02-19T11:14:16;11.07;;;4.85;;
71296;SDS011;59082;50.658;4.608;2023-02-19T11:16:58;8.43;;;4.53;;
71296;SDS011;59082;50.658;4.608;2023-02-19T11:19:41;9.13;;;5.03;;
71296;SDS011;59082;50.658;4.608;2023-02-19T11:24:57;7.43;;;5.88;;
71296;SDS011;59082;50.658;4.608;2023-02-19T11:27:29;11.52;;;4.95;;
71296;SDS011;59082;50.658;4.608;2023-02-19T11:30:21;9.73;;;3.73;;
71296;SDS011;59082;50.658;4.608;2023-02-19T11:33:12;9.93;;;4.80;;
71296;SDS011;59082;50.658;4.608;2023-02-19T11:35:41;11.18;;;4.70;;
71296;SDS011;59082;50.658;4.608;2023-02-19T11:38:08;8.27;;;4.03;;
71296;SDS011;59082;50.658;4.608;2023-02-19T11:40:54;7.60;;;4.45;;
71296;SDS011;59082;50.658;4.608;2023-02-19T11:46:53;11.40;;;4.57;;
71296;SDS011;59082;50.658;4.608;2023-02-19T11:55:02;11.30;;;5.07;;
71296;SDS011;59082;50.658;4.608;2023-02-19T11:58:43;9.60;;;4.30;;
71296;SDS011;59082;50.658;4.608;2023-02-19T12:01:07;6.28;;;4.07;;
71296;SDS011;59082;50.658;4.608;2023-02-19T12:17:19;11.05;;;4.35;;
71296;SDS011;59082;50.658;4.608;2023-02-19T12:20:11;6.78;;;3.70;;
71296;SDS011;59082;50.658;4.608;2023-02-19T12:40:32;3.10;;;2.73;;
71296;SDS011;59082;50.658;4.608;2023-02-19T12:45:37;8.70;;;3.08;;
71296;SDS011;59082;50.658;4.608;2023-02-19T12:50:51;7.55;;;3.40;;
71296;SDS011;59082;50.658;4.608;2023-02-19T12:53:38;3.80;;;3.00;;
71296;SDS011;59082;50.658;4.608;2023-02-19T12:56:12;6.80;;;2.72;;
71296;SDS011;59082;50.658;4.608;2023-02-19T12:58:44;4.82;;;2.90;;
71296;SDS011;59082;50.658;4.608;2023-02-19T13:01:15;5.13;;;2.65;;
71296;SDS011;59082;50.658;4.608;2023-02-19T13:06:38;5.73;;;3.20;;
71296;SDS011;59082;50.658;4.608;2023-02-19T13:09:12;5.70;;;3.03;;
71296;SDS011;59082;50.658;4.608;2023-02-19T13:11:43;4.38;;;3.40;;
71296;SDS011;59082;50.658;4.608;2023-02-19T13:14:55;4.35;;;2.75;;
71296;SDS011;59082;50.658;4.608;2023-02-19T13:19:54;6.37;;;2.90;;
71296;SDS011;59082;50.658;4.608;2023-02-19T13:22:35;4.35;;;3.00;;
71296;SDS011;59082;50.658;4.608;2023-02-19T13:31:54;6.30;;;2.85;;
71296;SDS011;59082;50.658;4.608;2023-02-19T13:36:47;2.45;;;2.08;;
71296;SDS011;59082;50.658;4.608;2023-02-19T13:39:13;9.35;;;4.57;;
71296;SDS011;59082;50.658;4.608;2023-02-19T13:41:48;3.47;;;2.47;;
71296;SDS011;59082;50.658;4.608;2023-02-19T13:44:16;3.67;;;2.13;;
71296;SDS011;59082;50.658;4.608;2023-02-19T13:46:44;6.07;;;2.70;;
71296;SDS011;59082;50.658;4.608;2023-02-19T13:49:24;6.35;;;2.70;;
71296;SDS011;59082;50.658;4.608;2023-02-19T14:01:07;5.67;;;2.90;;
71296;SDS011;59082;50.658;4.608;2023-02-19T14:06:09;5.75;;;3.03;;
71296;SDS011;59082;50.658;4.608;2023-02-19T14:08:49;6.13;;;2.80;;
71296;SDS011;59082;50.658;4.608;2023-02-19T14:28:05;5.40;;;2.90;;
71296;SDS011;59082;50.658;4.608;2023-02-19T14:30:49;6.30;;;2.80;;
71296;SDS011;59082;50.658;4.608;2023-02-19T14:33:32;5.10;;;2.78;;
71296;SDS011;59082;50.658;4.608;2023-02-19T14:38:52;4.25;;;2.30;;
71296;SDS011;59082;50.658;4.608;2023-02-19T14:41:29;3.70;;;2.43;;
71296;SDS011;59082;50.658;4.608;2023-02-19T14:43:58;6.93;;;3.17;;
71296;SDS011;59082;50.658;4.608;2023-02-19T14:46:31;6.70;;;3.38;;
71296;SDS011;59082;50.658;4.608;2023-02-19T14:49:12;5.78;;;3.28;;
71296;SDS011;59082;50.658;4.608;2023-02-19T14:51:43;4.50;;;3.15;;
71296;SDS011;59082;50.658;4.608;2023-02-19T14:54:17;6.10;;;3.20;;
71296;SDS011;59082;50.658;4.608;2023-02-19T14:56:50;4.70;;;2.80;;
71296;SDS011;59082;50.658;4.608;2023-02-19T15:02:00;5.95;;;3.08;;
71296;SDS011;59082;50.658;4.608;2023-02-19T15:04:37;5.50;;;3.95;;
71296;SDS011;59082;50.658;4.608;2023-02-19T15:07:07;6.37;;;3.43;;
71296;SDS011;59082;50.658;4.608;2023-02-19T15:09:39;7.32;;;3.60;;
71296;SDS011;59082;50.658;4.608;2023-02-19T15:14:44;3.08;;;2.47;;
71296;SDS011;59082;50.658;4.608;2023-02-19T15:17:18;3.53;;;2.70;;
71296;SDS011;59082;50.658;4.608;2023-02-19T15:19:49;4.40;;;2.93;;
71296;SDS011;59082;50.658;4.608;2023-02-19T15:22:21;3.40;;;2.83;;
71296;SDS011;59082;50.658;4.608;2023-02-19T15:24:52;4.97;;;1.88;;
71296;SDS011;59082;50.658;4.608;2023-02-19T15:27:20;2.43;;;1.93;;
71296;SDS011;59082;50.658;4.608;2023-02-19T15:29:49;5.70;;;2.38;;
71296;SDS011;59082;50.658;4.608;2023-02-19T15:32:17;7.30;;;3.28;;
71296;SDS011;59082;50.658;4.608;2023-02-19T15:34:53;4.55;;;3.17;;
71296;SDS011;59082;50.658;4.608;2023-02-19T15:37:32;4.00;;;3.08;;
71296;SDS011;59082;50.658;4.608;2023-02-19T15:40:02;3.67;;;3.37;;
71296;SDS011;59082;50.658;4.608;2023-02-19T15:42:31;3.33;;;2.55;;
71296;SDS011;59082;50.658;4.608;2023-02-19T15:47:36;7.07;;;2.55;;
71296;SDS011;59082;50.658;4.608;2023-02-19T15:53:05;2.90;;;2.57;;
71296;SDS011;59082;50.658;4.608;2023-02-19T15:55:39;4.45;;;2.15;;
71296;SDS011;59082;50.658;4.608;2023-02-19T16:00:56;4.78;;;3.05;;
71296;SDS011;59082;50.658;4.608;2023-02-19T16:03:44;2.35;;;1.90;;
71296;SDS011;59082;50.658;4.608;2023-02-19T16:06:13;2.73;;;1.47;;
71296;SDS011;59082;50.658;4.608;2023-02-19T16:08:41;3.65;;;2.35;;
71296;SDS011;59082;50.658;4.608;2023-02-19T16:13:49;2.50;;;1.63;;
71296;SDS011;59082;50.658;4.608;2023-02-19T16:18:51;2.67;;;1.85;;
71296;SDS011;59082;50.658;4.608;2023-02-19T16:21:21;2.58;;;1.85;;
71296;SDS011;59082;50.658;4.608;2023-02-19T16:23:52;1.48;;;0.90;;
71296;SDS011;59082;50.658;4.608;2023-02-19T16:26:23;2.42;;;2.17;;
71296;SDS011;59082;50.658;4.608;2023-02-19T16:28:52;2.37;;;1.30;;
71296;SDS011;59082;50.658;4.608;2023-02-19T16:33:48;2.65;;;2.10;;
71296;SDS011;59082;50.658;4.608;2023-02-19T16:44:37;2.15;;;2.05;;
71296;SDS011;59082;50.658;4.608;2023-02-19T16:47:02;3.90;;;2.03;;
71296;SDS011;59082;50.658;4.608;2023-02-19T16:49:30;2.15;;;1.52;;
71296;SDS011;59082;50.658;4.608;2023-02-19T16:51:57;3.47;;;2.03;;
71296;SDS011;59082;50.658;4.608;2023-02-19T16:54:23;3.83;;;2.40;;
71296;SDS011;59082;50.658;4.608;2023-02-19T16:56:49;3.67;;;1.67;;
71296;SDS011;59082;50.658;4.608;2023-02-19T16:59:15;3.03;;;1.67;;
71296;SDS011;59082;50.658;4.608;2023-02-19T17:01:41;11.27;;;4.65;;
71296;SDS011;59082;50.658;4.608;2023-02-19T17:04:07;4.63;;;2.57;;
71296;SDS011;59082;50.658;4.608;2023-02-19T17:06:36;4.18;;;2.08;;
71296;SDS011;59082;50.658;4.608;2023-02-19T17:09:06;4.03;;;2.85;;
71296;SDS011;59082;50.658;4.608;2023-02-19T17:11:35;5.18;;;3.13;;
71296;SDS011;59082;50.658;4.608;2023-02-19T17:14:00;4.53;;;2.95;;
71296;SDS011;59082;50.658;4.608;2023-02-19T17:16:30;5.00;;;3.03;;
71296;SDS011;59082;50.658;4.608;2023-02-19T17:19:04;10.68;;;5.88;;
71296;SDS011;59082;50.658;4.608;2023-02-19T17:24:02;4.32;;;2.60;;
71296;SDS011;59082;50.658;4.608;2023-02-19T17:26:28;5.40;;;3.17;;
71296;SDS011;59082;50.658;4.608;2023-02-19T17:29:00;9.57;;;4.13;;
71296;SDS011;59082;50.658;4.608;2023-02-19T17:31:28;3.47;;;3.17;;
71296;SDS011;59082;50.658;4.608;2023-02-19T17:33:54;8.47;;;4.67;;
71296;SDS011;59082;50.658;4.608;2023-02-19T17:36:21;12.07;;;5.95;;
71296;SDS011;59082;50.658;4.608;2023-02-19T17:38:50;21.97;;;10.63;;
71296;SDS011;59082;50.658;4.608;2023-02-19T17:41:17;11.40;;;5.53;;
71296;SDS011;59082;50.658;4.608;2023-02-19T17:43:42;25.77;;;11.10;;
71296;SDS011;59082;50.658;4.608;2023-02-19T17:46:12;19.93;;;11.67;;
71296;SDS011;59082;50.658;4.608;2023-02-19T17:48:41;19.00;;;8.77;;
71296;SDS011;59082;50.658;4.608;2023-02-19T17:51:10;13.57;;;7.30;;
71296;SDS011;59082;50.658;4.608;2023-02-19T17:53:36;11.10;;;5.90;;
71296;SDS011;59082;50.658;4.608;2023-02-19T17:56:01;18.53;;;8.97;;
71296;SDS011;59082;50.658;4.608;2023-02-19T17:58:27;43.70;;;18.92;;
71296;SDS011;59082;50.658;4.608;2023-02-19T18:00:53;15.73;;;7.63;;
71296;SDS011;59082;50.658;4.608;2023-02-19T18:03:18;15.60;;;8.53;;
71296;SDS011;59082;50.658;4.608;2023-02-19T18:05:44;11.10;;;7.85;;
71296;SDS011;59082;50.658;4.608;2023-02-19T18:08:09;8.30;;;5.33;;
71296;SDS011;59082;50.658;4.608;2023-02-19T18:10:35;5.63;;;4.53;;
71296;SDS011;59082;50.658;4.608;2023-02-19T18:13:01;10.03;;;5.47;;
71296;SDS011;59082;50.658;4.608;2023-02-19T18:15:27;11.07;;;5.53;;
71296;SDS011;59082;50.658;4.608;2023-02-19T18:17:53;7.80;;;4.75;;
71296;SDS011;59082;50.658;4.608;2023-02-19T18:20:24;5.30;;;3.60;;
71296;SDS011;59082;50.658;4.608;2023-02-19T18:22:54;6.05;;;4.50;;
71296;SDS011;59082;50.658;4.608;2023-02-19T18:25:20;16.15;;;8.68;;
71296;SDS011;59082;50.658;4.608;2023-02-19T18:27:46;26.02;;;11.70;;
71296;SDS011;59082;50.658;4.608;2023-02-19T18:30:13;22.53;;;10.63;;
71296;SDS011;59082;50.658;4.608;2023-02-19T18:32:42;17.90;;;10.10;;
71296;SDS011;59082;50.658;4.608;2023-02-19T18:35:09;16.67;;;8.68;;
71296;SDS011;59082;50.658;4.608;2023-02-19T18:37:35;13.40;;;6.75;;
71296;SDS011;59082;50.658;4.608;2023-02-19T18:40:01;11.10;;;7.17;;
71296;SDS011;59082;50.658;4.608;2023-02-19T18:42:28;13.73;;;7.57;;
71296;SDS011;59082;50.658;4.608;2023-02-19T18:44:54;12.55;;;7.47;;
71296;SDS011;59082;50.658;4.608;2023-02-19T18:47:20;14.10;;;9.00;;
71296;SDS011;59082;50.658;4.608;2023-02-19T18:49:50;16.85;;;10.27;;
71296;SDS011;59082;50.658;4.608;2023-02-19T18:52:20;87.65;;;34.00;;
71296;SDS011;59082;50.658;4.608;2023-02-19T18:54:49;99.28;;;37.85;;
71296;SDS011;59082;50.658;4.608;2023-02-19T18:57:16;33.33;;;16.38;;
71296;SDS011;59082;50.658;4.608;2023-02-19T18:59:43;69.17;;;26.67;;
71296;SDS011;59082;50.658;4.608;2023-02-19T19:02:09;117.55;;;47.08;;
71296;SDS011;59082;50.658;4.608;2023-02-19T19:04:36;39.33;;;17.55;;
71296;SDS011;59082;50.658;4.608;2023-02-19T19:07:03;10.52;;;8.63;;
71296;SDS011;59082;50.658;4.608;2023-02-19T19:09:33;11.13;;;7.93;;
71296;SDS011;59082;50.658;4.608;2023-02-19T19:11:59;19.70;;;13.30;;
71296;SDS011;59082;50.658;4.608;2023-02-19T19:14:25;20.15;;;13.10;;
71296;SDS011;59082;50.658;4.608;2023-02-19T19:16:51;18.83;;;11.10;;
71296;SDS011;59082;50.658;4.608;2023-02-19T19:19:16;14.88;;;9.43;;
71296;SDS011;59082;50.658;4.608;2023-02-19T19:21:44;16.40;;;11.35;;
71296;SDS011;59082;50.658;4.608;2023-02-19T19:24:13;15.43;;;10.83;;
71296;SDS011;59082;50.658;4.608;2023-02-19T19:26:42;15.68;;;10.80;;
71296;SDS011;59082;50.658;4.608;2023-02-19T19:29:09;16.40;;;12.45;;
71296;SDS011;59082;50.658;4.608;2023-02-19T19:31:36;28.37;;;19.83;;
71296;SDS011;59082;50.658;4.608;2023-02-19T19:34:02;48.83;;;30.52;;
71296;SDS011;59082;50.658;4.608;2023-02-19T19:36:29;56.17;;;33.15;;
71296;SDS011;59082;50.658;4.608;2023-02-19T19:38:54;32.97;;;21.87;;
71296;SDS011;59082;50.658;4.608;2023-02-19T19:41:20;35.30;;;20.67;;
71296;SDS011;59082;50.658;4.608;2023-02-19T19:43:45;27.00;;;17.37;;
71296;SDS011;59082;50.658;4.608;2023-02-19T19:46:11;24.58;;;15.75;;
71296;SDS011;59082;50.658;4.608;2023-02-19T19:48:43;21.00;;;14.13;;
71296;SDS011;59082;50.658;4.608;2023-02-19T19:51:09;18.58;;;11.90;;
71296;SDS011;59082;50.658;4.608;2023-02-19T19:53:34;74.55;;;36.58;;
71296;SDS011;59082;50.658;4.608;2023-02-19T19:56:00;156.57;;;73.70;;
71296;SDS011;59082;50.658;4.608;2023-02-19T19:58:26;49.55;;;27.00;;
71296;SDS011;59082;50.658;4.608;2023-02-19T20:00:52;35.63;;;22.53;;
71296;SDS011;59082;50.658;4.608;2023-02-19T20:03:19;31.90;;;20.67;;
71296;SDS011;59082;50.658;4.608;2023-02-19T20:05:47;37.05;;;23.88;;
71296;SDS011;59082;50.658;4.608;2023-02-19T20:08:16;28.38;;;18.95;;
71296;SDS011;59082;50.658;4.608;2023-02-19T20:10:42;25.40;;;16.67;;
71296;SDS011;59082;50.658;4.608;2023-02-19T20:13:08;22.67;;;13.27;;
71296;SDS011;59082;50.658;4.608;2023-02-19T20:15:33;19.63;;;12.97;;
71296;SDS011;59082;50.658;4.608;2023-02-19T20:17:59;44.65;;;23.70;;
71296;SDS011;59082;50.658;4.608;2023-02-19T20:20:25;34.10;;;19.33;;
71296;SDS011;59082;50.658;4.608;2023-02-19T20:22:51;37.95;;;23.13;;
71296;SDS011;59082;50.658;4.608;2023-02-19T20:25:19;39.63;;;21.92;;
71296;SDS011;59082;50.658;4.608;2023-02-19T20:27:49;23.95;;;15.32;;
71296;SDS011;59082;50.658;4.608;2023-02-19T20:30:16;23.17;;;14.37;;
71296;SDS011;59082;50.658;4.608;2023-02-19T20:32:44;22.92;;;12.65;;
71296;SDS011;59082;50.658;4.608;2023-02-19T20:35:12;25.63;;;14.57;;
71296;SDS011;59082;50.658;4.608;2023-02-19T20:37:41;24.60;;;13.70;;
71296;SDS011;59082;50.658;4.608;2023-02-19T20:40:09;27.85;;;17.23;;
71296;SDS011;59082;50.658;4.608;2023-02-19T20:42:36;23.27;;;15.95;;
71296;SDS011;59082;50.658;4.608;2023-02-19T20:45:02;37.95;;;23.67;;
71296;SDS011;59082;50.658;4.608;2023-02-19T20:47:29;34.92;;;24.02;;
71296;SDS011;59082;50.658;4.608;2023-02-19T20:49:54;55.10;;;33.47;;
71296;SDS011;59082;50.658;4.608;2023-02-19T20:52:21;52.57;;;31.87;;
71296;SDS011;59082;50.658;4.608;2023-02-19T20:54:52;28.40;;;17.80;;
71296;SDS011;59082;50.658;4.608;2023-02-19T20:57:19;26.27;;;16.23;;
71296;SDS011;59082;50.658;4.608;2023-02-19T20:59:45;30.10;;;17.55;;
71296;SDS011;59082;50.658;4.608;2023-02-19T21:02:13;24.67;;;14.67;;
71296;SDS011;59082;50.658;4.608;2023-02-19T21:04:42;28.60;;;16.40;;
71296;SDS011;59082;50.658;4.608;2023-02-19T21:07:08;28.70;;;15.63;;
71296;SDS011;59082;50.658;4.608;2023-02-19T21:09:33;23.80;;;14.82;;
71296;SDS011;59082;50.658;4.608;2023-02-19T21:11:59;25.67;;;15.00;;
71296;SDS011;59082;50.658;4.608;2023-02-19T21:14:24;28.20;;;17.37;;
71296;SDS011;59082;50.658;4.608;2023-02-19T21:16:50;35.67;;;18.08;;
71296;SDS011;59082;50.658;4.608;2023-02-19T21:19:17;31.88;;;17.00;;
71296;SDS011;59082;50.658;4.608;2023-02-19T21:21:44;28.73;;;15.15;;
71296;SDS011;59082;50.658;4.608;2023-02-19T21:24:11;26.10;;;15.07;;
71296;SDS011;59082;50.658;4.608;2023-02-19T21:26:38;29.80;;;15.35;;
71296;SDS011;59082;50.658;4.608;2023-02-19T21:29:04;26.52;;;14.35;;
71296;SDS011;59082;50.658;4.608;2023-02-19T21:31:38;29.85;;;14.13;;
71296;SDS011;59082;50.658;4.608;2023-02-19T21:34:09;28.87;;;15.37;;
71296;SDS011;59082;50.658;4.608;2023-02-19T21:36:36;26.58;;;15.25;;
71296;SDS011;59082;50.658;4.608;2023-02-19T21:39:02;31.17;;;17.48;;
71296;SDS011;59082;50.658;4.608;2023-02-19T21:41:29;26.02;;;15.38;;
71296;SDS011;59082;50.658;4.608;2023-02-19T21:43:54;30.57;;;15.27;;
71296;SDS011;59082;50.658;4.608;2023-02-19T21:46:21;29.88;;;16.25;;
71296;SDS011;59082;50.658;4.608;2023-02-19T21:48:48;31.27;;;16.60;;
71296;SDS011;59082;50.658;4.608;2023-02-19T21:51:14;35.15;;;17.23;;
71296;SDS011;59082;50.658;4.608;2023-02-19T21:53:41;35.23;;;16.73;;
71296;SDS011;59082;50.658;4.608;2023-02-19T21:56:07;30.02;;;16.25;;
71296;SDS011;59082;50.658;4.608;2023-02-19T21:58:33;28.67;;;16.73;;
71296;SDS011;59082;50.658;4.608;2023-02-19T22:00:58;32.45;;;17.23;;
71296;SDS011;59082;50.658;4.608;2023-02-19T22:03:24;32.33;;;16.80;;
71296;SDS011;59082;50.658;4.608;2023-02-19T22:05:50;33.80;;;18.10;;
71296;SDS011;59082;50.658;4.608;2023-02-19T22:08:16;41.75;;;20.27;;
71296;SDS011;59082;50.658;4.608;2023-02-19T22:10:43;41.70;;;23.10;;
71296;SDS011;59082;50.658;4.608;2023-02-19T22:13:08;40.77;;;23.20;;
71296;SDS011;59082;50.658;4.608;2023-02-19T22:15:35;40.22;;;21.67;;
71296;SDS011;59082;50.658;4.608;2023-02-19T22:18:00;34.85;;;17.55;;
71296;SDS011;59082;50.658;4.608;2023-02-19T22:20:26;36.10;;;18.53;;
71296;SDS011;59082;50.658;4.608;2023-02-19T22:22:52;35.78;;;18.50;;
71296;SDS011;59082;50.658;4.608;2023-02-19T22:25:18;34.67;;;16.07;;
71296;SDS011;59082;50.658;4.608;2023-02-19T22:27:44;39.33;;;20.80;;
71296;SDS011;59082;50.658;4.608;2023-02-19T22:30:10;42.10;;;23.57;;
71296;SDS011;59082;50.658;4.608;2023-02-19T22:32:36;33.78;;;19.98;;
71296;SDS011;59082;50.658;4.608;2023-02-19T22:35:03;35.03;;;19.17;;
71296;SDS011;59082;50.658;4.608;2023-02-19T22:37:28;35.27;;;18.20;;
71296;SDS011;59082;50.658;4.608;2023-02-19T22:39:54;33.85;;;18.70;;
71296;SDS011;59082;50.658;4.608;2023-02-19T22:42:19;34.60;;;16.60;;
71296;SDS011;59082;50.658;4.608;2023-02-19T22:44:45;39.00;;;19.38;;
71296;SDS011;59082;50.658;4.608;2023-02-19T22:47:11;33.60;;;16.57;;
71296;SDS011;59082;50.658;4.608;2023-02-19T22:49:37;32.40;;;17.77;;
71296;SDS011;59082;50.658;4.608;2023-02-19T22:52:04;37.25;;;19.50;;
71296;SDS011;59082;50.658;4.608;2023-02-19T22:54:32;35.85;;;19.35;;
71296;SDS011;59082;50.658;4.608;2023-02-19T22:56:58;34.05;;;19.30;;
71296;SDS011;59082;50.658;4.608;2023-02-19T22:59:24;31.87;;;17.87;;
71296;SDS011;59082;50.658;4.608;2023-02-19T23:01:50;28.30;;;16.60;;
71296;SDS011;59082;50.658;4.608;2023-02-19T23:04:16;28.33;;;13.97;;
71296;SDS011;59082;50.658;4.608;2023-02-19T23:06:43;25.13;;;13.40;;
71296;SDS011;59082;50.658;4.608;2023-02-19T23:09:28;26.52;;;13.43;;
71296;SDS011;59082;50.658;4.608;2023-02-19T23:12:04;30.65;;;13.70;;
71296;SDS011;59082;50.658;4.608;2023-02-19T23:14:31;28.83;;;13.32;;
71296;SDS011;59082;50.658;4.608;2023-02-19T23:16:57;28.70;;;14.23;;
71296;SDS011;59082;50.658;4.608;2023-02-19T23:19:23;24.13;;;12.27;;
71296;SDS011;59082;50.658;4.608;2023-02-19T23:21:49;25.88;;;13.15;;
71296;SDS011;59082;50.658;4.608;2023-02-19T23:24:15;27.33;;;12.45;;
71296;SDS011;59082;50.658;4.608;2023-02-19T23:26:41;20.40;;;11.73;;
71296;SDS011;59082;50.658;4.608;2023-02-19T23:29:22;27.35;;;13.32;;
71296;SDS011;59082;50.658;4.608;2023-02-19T23:31:49;22.75;;;12.77;;
71296;SDS011;59082;50.658;4.608;2023-02-19T23:34:15;22.40;;;11.82;;
71296;SDS011;59082;50.658;4.608;2023-02-19T23:36:42;21.10;;;11.47;;
71296;SDS011;59082;50.658;4.608;2023-02-19T23:39:09;23.23;;;11.77;;
71296;SDS011;59082;50.658;4.608;2023-02-19T23:41:37;24.60;;;12.15;;
71296;SDS011;59082;50.658;4.608;2023-02-19T23:44:03;20.48;;;11.10;;
71296;SDS011;59082;50.658;4.608;2023-02-19T23:46:29;19.63;;;10.80;;
71296;SDS011;59082;50.658;4.608;2023-02-19T23:48:56;18.07;;;10.10;;
71296;SDS011;59082;50.658;4.608;2023-02-19T23:51:21;22.92;;;10.93;;
71296;SDS011;59082;50.658;4.608;2023-02-19T23:53:47;19.03;;;10.70;;
71296;SDS011;59082;50.658;4.608;2023-02-19T23:56:20;22.08;;;10.35;;
71296;SDS011;59082;50.658;4.608;2023-02-19T23:58:51;16.90;;;9.27;;
